sensor_id;sensor_type;location;lat;lon;timestamp;P1;durP1;ratioP1;P2;durP2;ratioP2
6007;SDS011;3032;49.484;11.112;2023-02-28T00:02:17;2.37;;;2.17;;
6007;SDS011;3032;49.484;11.112;2023-02-28T00:04:42;2.60;;;2.40;;
6007;SDS011;3032;49.484;11.112;2023-02-28T00:07:09;2.55;;;2.35;;
6007;SDS011;3032;49.484;11.112;2023-02-28T00:09:34;3.03;;;2.72;;
6007;SDS011;3032;49.484;11.112;2023-02-28T00:12:00;2.60;;;2.40;;
6007;SDS011;3032;49.484;11.112;2023-02-28T00:14:35;2.88;;;2.50;;
6007;SDS011;3032;49.484;11.112;2023-02-28T00:17:01;2.50;;;2.30;;
6007;SDS011;3032;49.484;11.112;2023-02-28T00:19:27;2.87;;;2.67;;
6007;SDS011;3032;49.484;11.112;2023-02-28T00:21:52;2.90;;;2.60;;
6007;SDS011;3032;49.484;11.112;2023-02-28T00:24:18;2.70;;;2.60;;
6007;SDS011;3032;49.484;11.112;2023-02-28T00:26:43;2.60;;;2.30;;
6007;SDS011;3032;49.484;11.112;2023-02-28T00:29:09;3.53;;;2.53;;
6007;SDS011;3032;49.484;11.112;2023-02-28T00:31:35;4.10;;;3.20;;
6007;SDS011;3032;49.484;11.112;2023-02-28T00:34:00;3.73;;;2.80;;
6007;SDS011;3032;49.484;11.112;2023-02-28T00:36:26;2.87;;;2.67;;
6007;SDS011;3032;49.484;11.112;2023-02-28T00:38:51;2.77;;;2.57;;
6007;SDS011;3032;49.484;11.112;2023-02-28T00:41:17;3.13;;;2.77;;
6007;SDS011;3032;49.484;11.112;2023-02-28T00:43:43;2.60;;;2.40;;
6007;SDS011;3032;49.484;11.112;2023-02-28T00:46:08;3.30;;;2.93;;
6007;SDS011;3032;49.484;11.112;2023-02-28T00:48:34;3.00;;;2.80;;
6007;SDS011;3032;49.484;11.112;2023-02-28T00:51:00;3.25;;;2.97;;
6007;SDS011;3032;49.484;11.112;2023-02-28T00:53:26;4.63;;;2.90;;
6007;SDS011;3032;49.484;11.112;2023-02-28T00:55:52;3.00;;;2.70;;
6007;SDS011;3032;49.484;11.112;2023-02-28T00:58:18;3.17;;;2.90;;
6007;SDS011;3032;49.484;11.112;2023-02-28T01:00:43;2.93;;;2.60;;
6007;SDS011;3032;49.484;11.112;2023-02-28T01:03:13;3.60;;;2.78;;
6007;SDS011;3032;49.484;11.112;2023-02-28T01:05:40;3.10;;;2.90;;
6007;SDS011;3032;49.484;11.112;2023-02-28T01:08:06;6.15;;;3.33;;
6007;SDS011;3032;49.484;11.112;2023-02-28T01:10:32;2.97;;;2.77;;
6007;SDS011;3032;49.484;11.112;2023-02-28T01:12:57;3.03;;;2.33;;
6007;SDS011;3032;49.484;11.112;2023-02-28T01:15:23;6.37;;;3.20;;
6007;SDS011;3032;49.484;11.112;2023-02-28T01:17:48;3.33;;;2.63;;
6007;SDS011;3032;49.484;11.112;2023-02-28T01:20:14;3.20;;;2.60;;
6007;SDS011;3032;49.484;11.112;2023-02-28T01:22:40;3.10;;;2.80;;
6007;SDS011;3032;49.484;11.112;2023-02-28T01:25:05;2.63;;;2.43;;
6007;SDS011;3032;49.484;11.112;2023-02-28T01:27:31;5.97;;;2.50;;
6007;SDS011;3032;49.484;11.112;2023-02-28T01:29:58;2.75;;;2.60;;
6007;SDS011;3032;49.484;11.112;2023-02-28T01:32:23;5.30;;;2.67;;
6007;SDS011;3032;49.484;11.112;2023-02-28T01:34:49;3.17;;;2.87;;
6007;SDS011;3032;49.484;11.112;2023-02-28T01:37:14;3.13;;;2.80;;
6007;SDS011;3032;49.484;11.112;2023-02-28T01:39:40;3.50;;;2.83;;
6007;SDS011;3032;49.484;11.112;2023-02-28T01:42:05;3.10;;;2.80;;
6007;SDS011;3032;49.484;11.112;2023-02-28T01:47:45;2.55;;;2.35;;
6007;SDS011;3032;49.484;11.112;2023-02-28T01:50:15;4.07;;;3.42;;
6007;SDS011;3032;49.484;11.112;2023-02-28T01:52:44;4.78;;;3.10;;
6007;SDS011;3032;49.484;11.112;2023-02-28T01:55:11;3.03;;;2.80;;
6007;SDS011;3032;49.484;11.112;2023-02-28T01:57:41;4.28;;;2.80;;
6007;SDS011;3032;49.484;11.112;2023-02-28T02:00:11;2.85;;;2.42;;
6007;SDS011;3032;49.484;11.112;2023-02-28T02:02:41;5.15;;;3.08;;
6007;SDS011;3032;49.484;11.112;2023-02-28T02:05:09;4.25;;;3.47;;
6007;SDS011;3032;49.484;11.112;2023-02-28T02:07:37;4.28;;;3.10;;
6007;SDS011;3032;49.484;11.112;2023-02-28T02:10:12;3.55;;;2.95;;
6007;SDS011;3032;49.484;11.112;2023-02-28T02:12:50;5.35;;;3.17;;
6007;SDS011;3032;49.484;11.112;2023-02-28T02:16:23;2.92;;;2.70;;
6007;SDS011;3032;49.484;11.112;2023-02-28T02:18:52;4.78;;;2.70;;
6007;SDS011;3032;49.484;11.112;2023-02-28T02:24:19;3.63;;;3.03;;
6007;SDS011;3032;49.484;11.112;2023-02-28T02:35:00;3.85;;;3.13;;
6007;SDS011;3032;49.484;11.112;2023-02-28T02:40:27;5.32;;;3.38;;
6007;SDS011;3032;49.484;11.112;2023-02-28T02:45:45;4.32;;;2.00;;
6007;SDS011;3032;49.484;11.112;2023-02-28T02:48:21;3.85;;;3.10;;
6007;SDS011;3032;49.484;11.112;2023-02-28T02:50:53;4.50;;;3.50;;
6007;SDS011;3032;49.484;11.112;2023-02-28T02:53:22;4.40;;;3.40;;
6007;SDS011;3032;49.484;11.112;2023-02-28T02:55:53;3.50;;;3.20;;
6007;SDS011;3032;49.484;11.112;2023-02-28T02:58:21;5.45;;;3.50;;
6007;SDS011;3032;49.484;11.112;2023-02-28T03:00:52;6.60;;;3.25;;
6007;SDS011;3032;49.484;11.112;2023-02-28T03:03:21;5.15;;;3.88;;
6007;SDS011;3032;49.484;11.112;2023-02-28T03:05:54;3.55;;;3.25;;
6007;SDS011;3032;49.484;11.112;2023-02-28T03:08:26;3.55;;;3.25;;
6007;SDS011;3032;49.484;11.112;2023-02-28T03:10:59;4.28;;;3.80;;
6007;SDS011;3032;49.484;11.112;2023-02-28T03:24:43;4.78;;;3.95;;
6007;SDS011;3032;49.484;11.112;2023-02-28T03:27:35;4.47;;;3.80;;
6007;SDS011;3032;49.484;11.112;2023-02-28T03:31:10;5.40;;;4.25;;
6007;SDS011;3032;49.484;11.112;2023-02-28T03:33:20;4.68;;;3.75;;
6007;SDS011;3032;49.484;11.112;2023-02-28T03:35:50;4.57;;;3.95;;
6007;SDS011;3032;49.484;11.112;2023-02-28T03:38:31;5.55;;;3.80;;
6007;SDS011;3032;49.484;11.112;2023-02-28T03:41:08;3.95;;;3.65;;
6007;SDS011;3032;49.484;11.112;2023-02-28T03:43:46;5.13;;;4.00;;
6007;SDS011;3032;49.484;11.112;2023-02-28T03:46:17;4.90;;;4.38;;
6007;SDS011;3032;49.484;11.112;2023-02-28T03:48:57;4.53;;;4.07;;
6007;SDS011;3032;49.484;11.112;2023-02-28T03:51:27;4.15;;;3.83;;
6007;SDS011;3032;49.484;11.112;2023-02-28T03:53:57;5.47;;;4.20;;
6007;SDS011;3032;49.484;11.112;2023-02-28T03:56:37;5.35;;;4.85;;
6007;SDS011;3032;49.484;11.112;2023-02-28T03:59:10;5.07;;;3.97;;
6007;SDS011;3032;49.484;11.112;2023-02-28T04:01:44;4.50;;;4.10;;
6007;SDS011;3032;49.484;11.112;2023-02-28T04:04:12;5.53;;;4.47;;
6007;SDS011;3032;49.484;11.112;2023-02-28T04:06:40;7.85;;;4.63;;
6007;SDS011;3032;49.484;11.112;2023-02-28T04:09:07;5.50;;;4.88;;
6007;SDS011;3032;49.484;11.112;2023-02-28T04:14:16;9.88;;;4.68;;
6007;SDS011;3032;49.484;11.112;2023-02-28T04:16:42;5.10;;;4.30;;
6007;SDS011;3032;49.484;11.112;2023-02-28T04:19:09;4.68;;;3.95;;
6007;SDS011;3032;49.484;11.112;2023-02-28T04:21:37;5.63;;;4.30;;
6007;SDS011;3032;49.484;11.112;2023-02-28T04:24:04;5.00;;;4.50;;
6007;SDS011;3032;49.484;11.112;2023-02-28T04:26:31;7.07;;;4.93;;
6007;SDS011;3032;49.484;11.112;2023-02-28T04:28:58;5.90;;;4.55;;
6007;SDS011;3032;49.484;11.112;2023-02-28T04:31:24;5.00;;;4.50;;
6007;SDS011;3032;49.484;11.112;2023-02-28T04:33:49;6.47;;;4.70;;
6007;SDS011;3032;49.484;11.112;2023-02-28T04:36:15;5.93;;;4.50;;
6007;SDS011;3032;49.484;11.112;2023-02-28T04:38:42;5.25;;;4.65;;
6007;SDS011;3032;49.484;11.112;2023-02-28T04:41:09;8.02;;;4.88;;
6007;SDS011;3032;49.484;11.112;2023-02-28T04:43:35;6.83;;;4.60;;
6007;SDS011;3032;49.484;11.112;2023-02-28T04:46:01;8.40;;;4.40;;
6007;SDS011;3032;49.484;11.112;2023-02-28T04:48:29;5.70;;;4.50;;
6007;SDS011;3032;49.484;11.112;2023-02-28T04:50:59;5.70;;;4.80;;
6007;SDS011;3032;49.484;11.112;2023-02-28T04:53:27;8.40;;;5.13;;
6007;SDS011;3032;49.484;11.112;2023-02-28T04:55:54;6.32;;;4.40;;
6007;SDS011;3032;49.484;11.112;2023-02-28T04:58:19;6.93;;;4.57;;
6007;SDS011;3032;49.484;11.112;2023-02-28T05:00:47;7.82;;;4.47;;
6007;SDS011;3032;49.484;11.112;2023-02-28T05:03:13;5.23;;;4.43;;
6007;SDS011;3032;49.484;11.112;2023-02-28T05:05:39;5.30;;;4.43;;
6007;SDS011;3032;49.484;11.112;2023-02-28T05:08:04;5.77;;;4.30;;
6007;SDS011;3032;49.484;11.112;2023-02-28T05:10:30;5.13;;;4.37;;
6007;SDS011;3032;49.484;11.112;2023-02-28T05:12:56;5.65;;;4.07;;
6007;SDS011;3032;49.484;11.112;2023-02-28T05:15:21;8.43;;;4.70;;
6007;SDS011;3032;49.484;11.112;2023-02-28T05:17:47;8.00;;;4.77;;
6007;SDS011;3032;49.484;11.112;2023-02-28T05:20:13;5.40;;;4.53;;
6007;SDS011;3032;49.484;11.112;2023-02-28T05:22:39;5.60;;;4.40;;
6007;SDS011;3032;49.484;11.112;2023-02-28T05:25:05;7.00;;;4.93;;
6007;SDS011;3032;49.484;11.112;2023-02-28T05:27:31;7.97;;;5.10;;
6007;SDS011;3032;49.484;11.112;2023-02-28T05:29:57;7.57;;;5.00;;
6007;SDS011;3032;49.484;11.112;2023-02-28T05:32:23;6.90;;;5.35;;
6007;SDS011;3032;49.484;11.112;2023-02-28T05:34:49;6.87;;;5.27;;
6007;SDS011;3032;49.484;11.112;2023-02-28T05:37:15;10.93;;;5.87;;
6007;SDS011;3032;49.484;11.112;2023-02-28T05:39:41;7.87;;;5.10;;
6007;SDS011;3032;49.484;11.112;2023-02-28T05:42:07;6.70;;;4.78;;
6007;SDS011;3032;49.484;11.112;2023-02-28T05:44:34;6.00;;;4.80;;
6007;SDS011;3032;49.484;11.112;2023-02-28T05:47:00;6.68;;;5.47;;
6007;SDS011;3032;49.484;11.112;2023-02-28T05:49:25;5.93;;;4.63;;
6007;SDS011;3032;49.484;11.112;2023-02-28T05:51:51;7.50;;;5.53;;
6007;SDS011;3032;49.484;11.112;2023-02-28T05:54:17;5.20;;;4.63;;
6007;SDS011;3032;49.484;11.112;2023-02-28T05:56:42;5.77;;;4.80;;
6007;SDS011;3032;49.484;11.112;2023-02-28T05:59:14;8.50;;;5.68;;
6007;SDS011;3032;49.484;11.112;2023-02-28T06:01:40;7.07;;;4.95;;
6007;SDS011;3032;49.484;11.112;2023-02-28T06:04:13;6.57;;;5.00;;
6007;SDS011;3032;49.484;11.112;2023-02-28T06:06:43;8.15;;;5.20;;
6007;SDS011;3032;49.484;11.112;2023-02-28T06:09:09;7.60;;;4.50;;
6007;SDS011;3032;49.484;11.112;2023-02-28T06:11:35;7.47;;;5.22;;
6007;SDS011;3032;49.484;11.112;2023-02-28T06:14:01;8.07;;;5.10;;
6007;SDS011;3032;49.484;11.112;2023-02-28T06:16:27;7.47;;;5.10;;
6007;SDS011;3032;49.484;11.112;2023-02-28T06:18:54;5.95;;;4.85;;
6007;SDS011;3032;49.484;11.112;2023-02-28T06:21:21;7.75;;;5.20;;
6007;SDS011;3032;49.484;11.112;2023-02-28T06:23:47;6.18;;;5.20;;
6007;SDS011;3032;49.484;11.112;2023-02-28T06:26:13;7.73;;;5.47;;
6007;SDS011;3032;49.484;11.112;2023-02-28T06:28:38;5.30;;;4.67;;
6007;SDS011;3032;49.484;11.112;2023-02-28T06:31:08;5.97;;;5.37;;
6007;SDS011;3032;49.484;11.112;2023-02-28T06:33:35;6.75;;;5.05;;
6007;SDS011;3032;49.484;11.112;2023-02-28T06:36:02;8.05;;;5.25;;
6007;SDS011;3032;49.484;11.112;2023-02-28T06:38:28;6.00;;;5.22;;
6007;SDS011;3032;49.484;11.112;2023-02-28T06:40:55;7.65;;;5.78;;
6007;SDS011;3032;49.484;11.112;2023-02-28T06:43:22;6.10;;;5.50;;
6007;SDS011;3032;49.484;11.112;2023-02-28T06:45:48;7.20;;;5.50;;
6007;SDS011;3032;49.484;11.112;2023-02-28T06:48:13;9.20;;;5.53;;
6007;SDS011;3032;49.484;11.112;2023-02-28T06:50:39;13.27;;;5.80;;
6007;SDS011;3032;49.484;11.112;2023-02-28T06:53:05;7.07;;;5.77;;
6007;SDS011;3032;49.484;11.112;2023-02-28T06:55:30;9.07;;;6.07;;
6007;SDS011;3032;49.484;11.112;2023-02-28T06:57:56;6.67;;;5.47;;
6007;SDS011;3032;49.484;11.112;2023-02-28T07:00:22;7.38;;;5.75;;
6007;SDS011;3032;49.484;11.112;2023-02-28T07:02:49;5.78;;;5.18;;
6007;SDS011;3032;49.484;11.112;2023-02-28T07:05:15;7.37;;;5.97;;
6007;SDS011;3032;49.484;11.112;2023-02-28T07:07:41;7.70;;;5.80;;
6007;SDS011;3032;49.484;11.112;2023-02-28T07:10:09;5.95;;;5.13;;
6007;SDS011;3032;49.484;11.112;2023-02-28T07:12:36;6.03;;;5.28;;
6007;SDS011;3032;49.484;11.112;2023-02-28T07:15:03;6.60;;;5.60;;
6007;SDS011;3032;49.484;11.112;2023-02-28T07:17:29;6.68;;;5.50;;
6007;SDS011;3032;49.484;11.112;2023-02-28T07:19:55;7.20;;;6.20;;
6007;SDS011;3032;49.484;11.112;2023-02-28T07:22:21;6.30;;;5.20;;
6007;SDS011;3032;49.484;11.112;2023-02-28T07:24:46;7.03;;;5.80;;
6007;SDS011;3032;49.484;11.112;2023-02-28T07:27:12;9.40;;;6.00;;
6007;SDS011;3032;49.484;11.112;2023-02-28T07:29:37;6.33;;;5.60;;
6007;SDS011;3032;49.484;11.112;2023-02-28T07:32:03;6.50;;;5.63;;
6007;SDS011;3032;49.484;11.112;2023-02-28T07:34:29;6.63;;;5.57;;
6007;SDS011;3032;49.484;11.112;2023-02-28T07:36:54;6.97;;;5.93;;
6007;SDS011;3032;49.484;11.112;2023-02-28T07:39:21;6.57;;;5.50;;
6007;SDS011;3032;49.484;11.112;2023-02-28T07:41:47;7.25;;;5.40;;
6007;SDS011;3032;49.484;11.112;2023-02-28T07:44:12;6.13;;;5.63;;
6007;SDS011;3032;49.484;11.112;2023-02-28T07:46:38;5.97;;;5.40;;
6007;SDS011;3032;49.484;11.112;2023-02-28T07:49:04;8.03;;;5.90;;
6007;SDS011;3032;49.484;11.112;2023-02-28T07:51:30;7.97;;;5.40;;
6007;SDS011;3032;49.484;11.112;2023-02-28T07:53:56;8.53;;;6.00;;
6007;SDS011;3032;49.484;11.112;2023-02-28T07:56:22;7.13;;;5.35;;
6007;SDS011;3032;49.484;11.112;2023-02-28T07:58:48;8.00;;;5.80;;
6007;SDS011;3032;49.484;11.112;2023-02-28T08:01:14;6.47;;;4.40;;
6007;SDS011;3032;49.484;11.112;2023-02-28T08:03:39;10.23;;;6.03;;
6007;SDS011;3032;49.484;11.112;2023-02-28T08:06:06;6.43;;;3.77;;
6007;SDS011;3032;49.484;11.112;2023-02-28T08:08:33;8.68;;;6.85;;
6007;SDS011;3032;49.484;11.112;2023-02-28T08:11:02;6.77;;;5.00;;
6007;SDS011;3032;49.484;11.112;2023-02-28T08:13:29;7.50;;;5.95;;
6007;SDS011;3032;49.484;11.112;2023-02-28T08:15:55;9.18;;;5.65;;
6007;SDS011;3032;49.484;11.112;2023-02-28T08:18:21;8.10;;;6.40;;
6007;SDS011;3032;49.484;11.112;2023-02-28T08:20:47;7.85;;;6.53;;
6007;SDS011;3032;49.484;11.112;2023-02-28T08:23:13;7.90;;;6.23;;
6007;SDS011;3032;49.484;11.112;2023-02-28T08:25:39;8.55;;;6.45;;
6007;SDS011;3032;49.484;11.112;2023-02-28T08:28:04;8.03;;;6.80;;
6007;SDS011;3032;49.484;11.112;2023-02-28T08:30:30;7.33;;;5.67;;
6007;SDS011;3032;49.484;11.112;2023-02-28T08:32:55;6.20;;;5.70;;
6007;SDS011;3032;49.484;11.112;2023-02-28T08:35:21;6.73;;;5.67;;
6007;SDS011;3032;49.484;11.112;2023-02-28T08:37:47;9.10;;;7.37;;
6007;SDS011;3032;49.484;11.112;2023-02-28T08:40:14;8.75;;;6.85;;
6007;SDS011;3032;49.484;11.112;2023-02-28T08:42:43;10.45;;;6.70;;
6007;SDS011;3032;49.484;11.112;2023-02-28T08:45:12;8.98;;;7.07;;
6007;SDS011;3032;49.484;11.112;2023-02-28T08:47:39;7.40;;;4.93;;
6007;SDS011;3032;49.484;11.112;2023-02-28T08:50:05;7.87;;;5.93;;
6007;SDS011;3032;49.484;11.112;2023-02-28T08:52:30;8.43;;;6.68;;
6007;SDS011;3032;49.484;11.112;2023-02-28T08:54:56;11.10;;;6.97;;
6007;SDS011;3032;49.484;11.112;2023-02-28T08:57:22;7.90;;;6.10;;
6007;SDS011;3032;49.484;11.112;2023-02-28T08:59:47;8.70;;;6.23;;
6007;SDS011;3032;49.484;11.112;2023-02-28T09:02:13;10.10;;;6.30;;
6007;SDS011;3032;49.484;11.112;2023-02-28T09:04:39;11.70;;;6.30;;
6007;SDS011;3032;49.484;11.112;2023-02-28T09:07:05;8.45;;;7.10;;
6007;SDS011;3032;49.484;11.112;2023-02-28T09:09:31;6.80;;;5.90;;
6007;SDS011;3032;49.484;11.112;2023-02-28T09:11:57;8.20;;;6.63;;
6007;SDS011;3032;49.484;11.112;2023-02-28T09:14:22;10.73;;;7.80;;
6007;SDS011;3032;49.484;11.112;2023-02-28T09:16:48;9.50;;;7.10;;
6007;SDS011;3032;49.484;11.112;2023-02-28T09:19:14;11.90;;;6.87;;
6007;SDS011;3032;49.484;11.112;2023-02-28T09:21:39;7.97;;;5.83;;
6007;SDS011;3032;49.484;11.112;2023-02-28T09:24:05;10.23;;;6.50;;
6007;SDS011;3032;49.484;11.112;2023-02-28T09:26:31;7.73;;;6.47;;
6007;SDS011;3032;49.484;11.112;2023-02-28T09:28:56;7.70;;;6.60;;
6007;SDS011;3032;49.484;11.112;2023-02-28T09:31:25;8.77;;;6.20;;
6007;SDS011;3032;49.484;11.112;2023-02-28T09:33:53;9.15;;;6.68;;
6007;SDS011;3032;49.484;11.112;2023-02-28T09:36:21;7.05;;;6.30;;
6007;SDS011;3032;49.484;11.112;2023-02-28T09:38:48;7.20;;;6.47;;
6007;SDS011;3032;49.484;11.112;2023-02-28T09:41:21;8.35;;;5.13;;
6007;SDS011;3032;49.484;11.112;2023-02-28T09:43:59;10.80;;;6.93;;
6007;SDS011;3032;49.484;11.112;2023-02-28T09:46:37;11.80;;;6.47;;
6007;SDS011;3032;49.484;11.112;2023-02-28T09:49:07;7.18;;;5.95;;
6007;SDS011;3032;49.484;11.112;2023-02-28T09:54:20;9.48;;;6.15;;
6007;SDS011;3032;49.484;11.112;2023-02-28T09:56:49;8.20;;;6.05;;
6007;SDS011;3032;49.484;11.112;2023-02-28T10:05:09;6.57;;;5.85;;
6007;SDS011;3032;49.484;11.112;2023-02-28T10:10:42;7.40;;;5.50;;
6007;SDS011;3032;49.484;11.112;2023-02-28T10:16:25;7.80;;;6.45;;
6007;SDS011;3032;49.484;11.112;2023-02-28T10:19:06;8.05;;;5.90;;
6007;SDS011;3032;49.484;11.112;2023-02-28T10:21:46;7.63;;;6.00;;
6007;SDS011;3032;49.484;11.112;2023-02-28T10:24:40;6.88;;;6.18;;
6007;SDS011;3032;49.484;11.112;2023-02-28T10:27:18;8.90;;;7.00;;
6007;SDS011;3032;49.484;11.112;2023-02-28T10:29:49;8.02;;;7.10;;
6007;SDS011;3032;49.484;11.112;2023-02-28T10:32:21;8.82;;;6.50;;
6007;SDS011;3032;49.484;11.112;2023-02-28T10:34:52;7.22;;;6.32;;
6007;SDS011;3032;49.484;11.112;2023-02-28T10:37:23;8.43;;;7.32;;
6007;SDS011;3032;49.484;11.112;2023-02-28T10:39:48;7.50;;;6.63;;
6007;SDS011;3032;49.484;11.112;2023-02-28T10:42:27;7.87;;;7.00;;
6007;SDS011;3032;49.484;11.112;2023-02-28T10:45:13;7.43;;;6.72;;
6007;SDS011;3032;49.484;11.112;2023-02-28T10:47:48;8.20;;;7.07;;
6007;SDS011;3032;49.484;11.112;2023-02-28T10:50:29;8.55;;;6.00;;
6007;SDS011;3032;49.484;11.112;2023-02-28T10:53:34;7.65;;;6.75;;
6007;SDS011;3032;49.484;11.112;2023-02-28T10:58:45;7.47;;;6.20;;
6007;SDS011;3032;49.484;11.112;2023-02-28T11:01:46;8.82;;;6.65;;
6007;SDS011;3032;49.484;11.112;2023-02-28T11:04:18;6.70;;;6.00;;
6007;SDS011;3032;49.484;11.112;2023-02-28T11:06:46;6.22;;;5.60;;
6007;SDS011;3032;49.484;11.112;2023-02-28T11:09:20;7.80;;;6.10;;
6007;SDS011;3032;49.484;11.112;2023-02-28T11:11:54;6.35;;;5.75;;
6007;SDS011;3032;49.484;11.112;2023-02-28T11:14:27;7.57;;;6.07;;
6007;SDS011;3032;49.484;11.112;2023-02-28T11:16:55;9.43;;;6.60;;
6007;SDS011;3032;49.484;11.112;2023-02-28T11:19:26;10.45;;;6.85;;
6007;SDS011;3032;49.484;11.112;2023-02-28T11:21:59;8.18;;;7.28;;
6007;SDS011;3032;49.484;11.112;2023-02-28T11:24:43;7.53;;;6.50;;
6007;SDS011;3032;49.484;11.112;2023-02-28T11:27:25;7.53;;;6.82;;
6007;SDS011;3032;49.484;11.112;2023-02-28T11:29:51;8.35;;;6.70;;
6007;SDS011;3032;49.484;11.112;2023-02-28T11:32:18;10.37;;;6.97;;
6007;SDS011;3032;49.484;11.112;2023-02-28T11:34:46;8.45;;;7.55;;
6007;SDS011;3032;49.484;11.112;2023-02-28T11:37:24;8.18;;;7.38;;
6007;SDS011;3032;49.484;11.112;2023-02-28T11:39:51;7.53;;;6.72;;
6007;SDS011;3032;49.484;11.112;2023-02-28T11:42:21;6.40;;;5.80;;
6007;SDS011;3032;49.484;11.112;2023-02-28T11:45:00;8.52;;;6.93;;
6007;SDS011;3032;49.484;11.112;2023-02-28T11:53:00;11.00;;;6.63;;
6007;SDS011;3032;49.484;11.112;2023-02-28T11:55:34;7.55;;;5.70;;
6007;SDS011;3032;49.484;11.112;2023-02-28T12:24:54;9.00;;;6.38;;
6007;SDS011;3032;49.484;11.112;2023-02-28T12:27:40;8.27;;;6.03;;
6007;SDS011;3032;49.484;11.112;2023-02-28T12:35:43;8.73;;;6.40;;
6007;SDS011;3032;49.484;11.112;2023-02-28T12:38:17;10.13;;;5.70;;
6007;SDS011;3032;49.484;11.112;2023-02-28T12:40:52;7.70;;;5.97;;
6007;SDS011;3032;49.484;11.112;2023-02-28T12:43:36;8.70;;;6.10;;
6007;SDS011;3032;49.484;11.112;2023-02-28T12:48:58;9.50;;;6.70;;
6007;SDS011;3032;49.484;11.112;2023-02-28T12:51:30;8.88;;;6.28;;
6007;SDS011;3032;49.484;11.112;2023-02-28T12:54:17;9.70;;;6.65;;
6007;SDS011;3032;49.484;11.112;2023-02-28T12:59:27;7.97;;;6.78;;
6007;SDS011;3032;49.484;11.112;2023-02-28T13:02:16;11.20;;;6.82;;
6007;SDS011;3032;49.484;11.112;2023-02-28T13:07:37;7.78;;;6.97;;
6007;SDS011;3032;49.484;11.112;2023-02-28T13:10:19;8.82;;;6.40;;
6007;SDS011;3032;49.484;11.112;2023-02-28T13:12:49;12.52;;;7.55;;
6007;SDS011;3032;49.484;11.112;2023-02-28T13:15:25;8.23;;;6.47;;
6007;SDS011;3032;49.484;11.112;2023-02-28T13:17:55;10.40;;;7.50;;
6007;SDS011;3032;49.484;11.112;2023-02-28T13:20:27;8.30;;;6.60;;
6007;SDS011;3032;49.484;11.112;2023-02-28T13:23:01;9.10;;;6.70;;
6007;SDS011;3032;49.484;11.112;2023-02-28T13:27:58;9.25;;;5.90;;
6007;SDS011;3032;49.484;11.112;2023-02-28T13:33:30;8.80;;;6.70;;
6007;SDS011;3032;49.484;11.112;2023-02-28T13:36:01;11.07;;;6.97;;
6007;SDS011;3032;49.484;11.112;2023-02-28T13:38:55;9.77;;;7.22;;
6007;SDS011;3032;49.484;11.112;2023-02-28T13:49:23;8.03;;;5.67;;
6007;SDS011;3032;49.484;11.112;2023-02-28T13:51:55;10.63;;;8.15;;
6007;SDS011;3032;49.484;11.112;2023-02-28T14:05:36;8.38;;;6.25;;
6007;SDS011;3032;49.484;11.112;2023-02-28T14:08:04;9.30;;;6.82;;
6007;SDS011;3032;49.484;11.112;2023-02-28T14:10:48;10.68;;;7.80;;
6007;SDS011;3032;49.484;11.112;2023-02-28T14:15:59;8.07;;;7.13;;
6007;SDS011;3032;49.484;11.112;2023-02-28T14:20:58;9.90;;;6.20;;
6007;SDS011;3032;49.484;11.112;2023-02-28T14:29:00;6.80;;;5.15;;
6007;SDS011;3032;49.484;11.112;2023-02-28T14:31:36;8.18;;;7.10;;
6007;SDS011;3032;49.484;11.112;2023-02-28T14:36:57;9.18;;;7.53;;
6007;SDS011;3032;49.484;11.112;2023-02-28T14:39:27;11.70;;;8.30;;
6007;SDS011;3032;49.484;11.112;2023-02-28T14:41:55;10.00;;;8.40;;
6007;SDS011;3032;49.484;11.112;2023-02-28T14:44:26;8.75;;;7.32;;
6007;SDS011;3032;49.484;11.112;2023-02-28T14:46:56;11.27;;;7.57;;
6007;SDS011;3032;49.484;11.112;2023-02-28T14:49:32;11.32;;;7.53;;
6007;SDS011;3032;49.484;11.112;2023-02-28T14:52:21;9.88;;;7.05;;
6007;SDS011;3032;49.484;11.112;2023-02-28T14:54:52;10.98;;;8.00;;
6007;SDS011;3032;49.484;11.112;2023-02-28T14:57:30;8.55;;;7.30;;
6007;SDS011;3032;49.484;11.112;2023-02-28T15:00:04;8.85;;;7.53;;
6007;SDS011;3032;49.484;11.112;2023-02-28T15:02:36;11.05;;;7.18;;
6007;SDS011;3032;49.484;11.112;2023-02-28T15:07:38;10.75;;;7.95;;
6007;SDS011;3032;49.484;11.112;2023-02-28T15:10:37;10.07;;;7.45;;
6007;SDS011;3032;49.484;11.112;2023-02-28T15:12:57;12.98;;;7.18;;
6007;SDS011;3032;49.484;11.112;2023-02-28T15:15:27;9.60;;;7.57;;
6007;SDS011;3032;49.484;11.112;2023-02-28T15:18:07;8.43;;;7.53;;
6007;SDS011;3032;49.484;11.112;2023-02-28T15:20:41;8.90;;;6.70;;
6007;SDS011;3032;49.484;11.112;2023-02-28T15:23:09;12.27;;;8.23;;
6007;SDS011;3032;49.484;11.112;2023-02-28T15:25:36;11.15;;;8.38;;
6007;SDS011;3032;49.484;11.112;2023-02-28T15:28:01;11.00;;;7.70;;
6007;SDS011;3032;49.484;11.112;2023-02-28T15:30:28;13.47;;;7.80;;
6007;SDS011;3032;49.484;11.112;2023-02-28T15:33:29;10.35;;;7.63;;
6007;SDS011;3032;49.484;11.112;2023-02-28T15:35:49;10.38;;;7.95;;
6007;SDS011;3032;49.484;11.112;2023-02-28T15:40:55;7.35;;;5.95;;
6007;SDS011;3032;49.484;11.112;2023-02-28T15:43:30;13.10;;;8.93;;
6007;SDS011;3032;49.484;11.112;2023-02-28T15:46:04;10.43;;;7.63;;
6007;SDS011;3032;49.484;11.112;2023-02-28T15:48:55;14.63;;;8.70;;
6007;SDS011;3032;49.484;11.112;2023-02-28T15:51:28;9.68;;;7.50;;
6007;SDS011;3032;49.484;11.112;2023-02-28T15:54:00;10.27;;;7.57;;
6007;SDS011;3032;49.484;11.112;2023-02-28T15:56:31;8.73;;;7.80;;
6007;SDS011;3032;49.484;11.112;2023-02-28T15:59:07;17.13;;;8.63;;
6007;SDS011;3032;49.484;11.112;2023-02-28T16:04:35;9.35;;;6.88;;
6007;SDS011;3032;49.484;11.112;2023-02-28T16:07:05;12.40;;;7.53;;
6007;SDS011;3032;49.484;11.112;2023-02-28T16:09:31;11.43;;;8.20;;
6007;SDS011;3032;49.484;11.112;2023-02-28T16:11:59;10.43;;;8.30;;
6007;SDS011;3032;49.484;11.112;2023-02-28T16:14:26;12.35;;;8.10;;
6007;SDS011;3032;49.484;11.112;2023-02-28T16:16:57;13.63;;;8.38;;
6007;SDS011;3032;49.484;11.112;2023-02-28T16:19:33;13.25;;;8.35;;
6007;SDS011;3032;49.484;11.112;2023-02-28T16:21:59;14.90;;;9.00;;
6007;SDS011;3032;49.484;11.112;2023-02-28T16:24:25;13.57;;;8.55;;
6007;SDS011;3032;49.484;11.112;2023-02-28T16:26:52;11.80;;;8.20;;
6007;SDS011;3032;49.484;11.112;2023-02-28T16:29:24;10.75;;;8.30;;
6007;SDS011;3032;49.484;11.112;2023-02-28T16:31:54;13.73;;;7.65;;
6007;SDS011;3032;49.484;11.112;2023-02-28T16:34:20;14.57;;;7.60;;
6007;SDS011;3032;49.484;11.112;2023-02-28T16:36:47;9.13;;;7.13;;
6007;SDS011;3032;49.484;11.112;2023-02-28T16:39:12;11.77;;;7.47;;
6007;SDS011;3032;49.484;11.112;2023-02-28T16:41:38;11.87;;;8.73;;
6007;SDS011;3032;49.484;11.112;2023-02-28T16:44:09;9.55;;;6.35;;
6007;SDS011;3032;49.484;11.112;2023-02-28T16:46:38;10.27;;;7.43;;
6007;SDS011;3032;49.484;11.112;2023-02-28T16:49:03;11.07;;;8.03;;
6007;SDS011;3032;49.484;11.112;2023-02-28T16:51:29;12.60;;;8.27;;
6007;SDS011;3032;49.484;11.112;2023-02-28T16:53:54;11.80;;;7.60;;
6007;SDS011;3032;49.484;11.112;2023-02-28T16:56:21;12.67;;;7.60;;
6007;SDS011;3032;49.484;11.112;2023-02-28T16:58:49;11.57;;;7.82;;
6007;SDS011;3032;49.484;11.112;2023-02-28T17:01:16;16.17;;;7.82;;
6007;SDS011;3032;49.484;11.112;2023-02-28T17:03:46;8.35;;;6.95;;
6007;SDS011;3032;49.484;11.112;2023-02-28T17:06:16;13.48;;;8.57;;
6007;SDS011;3032;49.484;11.112;2023-02-28T17:08:48;11.73;;;8.45;;
6007;SDS011;3032;49.484;11.112;2023-02-28T17:11:14;9.82;;;7.72;;
6007;SDS011;3032;49.484;11.112;2023-02-28T17:13:40;9.35;;;6.80;;
6007;SDS011;3032;49.484;11.112;2023-02-28T17:16:08;15.33;;;8.87;;
6007;SDS011;3032;49.484;11.112;2023-02-28T17:18:50;14.20;;;8.35;;
6007;SDS011;3032;49.484;11.112;2023-02-28T17:21:16;11.30;;;7.03;;
6007;SDS011;3032;49.484;11.112;2023-02-28T17:23:42;11.73;;;7.22;;
6007;SDS011;3032;49.484;11.112;2023-02-28T17:26:12;10.30;;;8.40;;
6007;SDS011;3032;49.484;11.112;2023-02-28T17:28:45;12.90;;;8.50;;
6007;SDS011;3032;49.484;11.112;2023-02-28T17:31:11;13.23;;;8.82;;
6007;SDS011;3032;49.484;11.112;2023-02-28T17:33:37;15.45;;;8.52;;
6007;SDS011;3032;49.484;11.112;2023-02-28T17:36:03;11.30;;;8.13;;
6007;SDS011;3032;49.484;11.112;2023-02-28T17:38:29;12.87;;;8.73;;